Time;durP1;ratioP1;P1;durP2;ratioP2;P2;SDS_P1;SDS_P2;PMS_P1;PMS_P2;Temp;Humidity;BMP_temperature;BMP_pressure;BME280_temperature;BME280_humidity;BME280_pressure;Samples;Min_cycle;Max_cycle;Signal;HPM_P1;HPM_P2
2023/05/16 00:02:10;;;;;;;5.73;3.40;;;16.60;99.90;;;;;;5080113;28;20194;-72
2023/05/16 00:04:36;;;;;;;6.77;3.63;;;16.60;99.90;;;;;;5078064;28;20221;-72
2023/05/16 00:07:02;;;;;;;5.50;3.40;;;16.60;99.90;;;;;;5082095;28;20203;-72
2023/05/16 00:09:28;;;;;;;6.30;3.27;;;16.60;99.90;;;;;;5081439;28;20303;-72
2023/05/16 00:11:55;;;;;;;6.43;3.70;;;16.50;99.90;;;;;;5075493;28;20227;-72
2023/05/16 00:14:21;;;;;;;6.43;3.83;;;16.50;99.90;;;;;;5080461;28;20529;-72
2023/05/16 00:16:47;;;;;;;4.00;3.17;;;16.50;99.90;;;;;;5077387;28;20190;-72
2023/05/16 00:19:14;;;;;;;10.77;3.53;;;16.50;99.90;;;;;;5077080;28;20557;-71
2023/05/16 00:21:40;;;;;;;7.53;3.60;;;16.50;99.90;;;;;;5083631;28;20186;-72
2023/05/16 00:24:06;;;;;;;7.13;4.00;;;16.50;99.90;;;;;;5092241;27;20210;-72
2023/05/16 00:26:36;;;;;;;4.57;3.50;;;16.40;99.90;;;;;;5080648;28;20214;-72
2023/05/16 00:29:02;;;;;;;6.67;3.30;;;16.40;99.90;;;;;;5068422;28;20195;-73
2023/05/16 00:31:28;;;;;;;8.40;3.90;;;16.40;99.90;;;;;;5087196;28;20784;-73
2023/05/16 00:33:54;;;;;;;5.60;3.50;;;16.50;99.90;;;;;;5084373;28;20186;-73
2023/05/16 00:36:20;;;;;;;8.07;3.37;;;16.50;99.90;;;;;;5103234;27;20178;-73
2023/05/16 00:38:47;;;;;;;5.60;3.70;;;16.50;99.90;;;;;;5086057;28;20212;-73
2023/05/16 00:41:13;;;;;;;6.90;3.80;;;16.50;99.90;;;;;;5101580;27;20522;-73
2023/05/16 00:43:39;;;;;;;11.37;4.30;;;16.50;99.90;;;;;;5089157;28;20203;-73
2023/05/16 00:46:06;;;;;;;5.67;3.40;;;16.40;99.90;;;;;;5074026;28;20275;-73
2023/05/16 00:48:32;;;;;;;7.20;3.30;;;16.30;99.90;;;;;;5086415;28;20186;-73
2023/05/16 00:51:01;;;;;;;9.00;3.70;;;16.20;99.90;;;;;;5071288;28;20217;-73
2023/05/16 00:53:28;;;;;;;6.13;3.93;;;16.20;99.90;;;;;;5087954;28;20234;-73
2023/05/16 00:55:55;;;;;;;7.20;3.50;;;16.20;99.90;;;;;;5086723;28;20185;-73
2023/05/16 00:58:23;;;;;;;7.83;3.70;;;16.20;99.90;;;;;;5105966;28;20209;-73
2023/05/16 01:00:50;;;;;;;5.53;3.43;;;16.20;99.90;;;;;;5088087;28;20190;-73
2023/05/16 01:03:17;;;;;;;5.80;3.43;;;16.20;99.90;;;;;;5091092;28;20224;-73
2023/05/16 01:05:43;;;;;;;7.33;3.83;;;16.20;99.90;;;;;;5073194;28;20286;-73
2023/05/16 01:08:10;;;;;;;6.83;3.87;;;16.20;99.90;;;;;;5085824;28;20190;-73
2023/05/16 01:10:57;;;;;;;6.93;3.83;;;16.20;99.90;;;;;;5086310;28;20272;-73
2023/05/16 01:14:20;;;;;;;5.30;3.50;;;16.30;99.90;;;;;;5083432;28;20193;-72
2023/05/16 01:17:12;;;;;;;8.00;3.60;;;16.30;99.90;;;;;;5047235;28;20576;-72
2023/05/16 01:20:26;;;;;;;7.90;3.70;;;16.30;99.90;;;;;;5084599;28;20492;-72
2023/05/16 01:23:18;;;;;;;7.83;3.57;;;16.30;99.90;;;;;;5043762;28;20190;-74
2023/05/16 01:25:44;;;;;;;6.10;3.60;;;16.40;99.90;;;;;;5077892;28;21063;-74
2023/05/16 01:28:16;;;;;;;7.43;3.77;;;16.40;99.90;;;;;;5078319;28;20541;-73
2023/05/16 01:30:43;;;;;;;5.83;3.40;;;16.40;99.90;;;;;;5079901;28;20190;-74
2023/05/16 01:33:10;;;;;;;10.53;3.77;;;16.30;99.90;;;;;;5080333;28;20198;-73
2023/05/16 01:36:03;;;;;;;8.67;3.50;;;16.20;99.90;;;;;;5078841;28;20759;-74
2023/05/16 01:39:00;;;;;;;5.43;3.20;;;16.20;99.90;;;;;;5076841;28;20762;-74
2023/05/16 01:41:53;;;;;;;9.70;3.33;;;16.20;99.90;;;;;;5078539;28;20289;-73
2023/05/16 01:44:58;;;;;;;7.67;3.07;;;16.20;99.90;;;;;;5078665;28;20209;-73
2023/05/16 01:47:27;;;;;;;9.10;3.67;;;16.20;99.90;;;;;;5071238;28;20210;-72
2023/05/16 01:50:21;;;;;;;6.43;3.47;;;16.20;99.90;;;;;;5078122;28;20183;-73
2023/05/16 01:53:02;;;;;;;7.93;4.07;;;16.20;99.90;;;;;;5075275;28;20206;-73
2023/05/16 01:55:48;;;;;;;6.57;3.80;;;16.20;99.90;;;;;;5079630;28;20627;-72
2023/05/16 01:58:19;;;;;;;5.93;3.90;;;16.20;99.90;;;;;;5076837;28;20203;-73
2023/05/16 02:00:46;;;;;;;8.93;4.07;;;16.20;99.90;;;;;;5089578;28;20190;-73
2023/05/16 02:03:12;;;;;;;6.57;3.73;;;16.10;99.90;;;;;;5077816;28;20246;-74
2023/05/16 02:05:40;;;;;;;8.40;4.07;;;16.10;99.90;;;;;;5079705;28;20201;-74
2023/05/16 02:08:09;;;;;;;9.20;4.20;;;16.10;99.90;;;;;;5081075;28;20283;-74
2023/05/16 02:10:35;;;;;;;8.07;4.53;;;16.20;99.90;;;;;;5078068;28;20209;-74
2023/05/16 02:13:01;;;;;;;11.07;4.50;;;16.10;99.90;;;;;;5081555;28;20191;-74
2023/05/16 02:15:28;;;;;;;8.97;4.50;;;16.10;99.90;;;;;;5076594;28;20186;-74
2023/05/16 02:17:54;;;;;;;6.63;4.70;;;16.10;99.90;;;;;;5076394;28;20182;-74
2023/05/16 02:20:21;;;;;;;8.87;4.70;;;16.10;99.90;;;;;;5076147;28;20214;-75
2023/05/16 02:22:48;;;;;;;9.83;5.03;;;16.00;99.90;;;;;;5078916;28;20233;-74
2023/05/16 02:25:15;;;;;;;12.83;4.90;;;16.00;99.90;;;;;;5083366;28;20607;-75
2023/05/16 02:27:42;;;;;;;10.53;4.90;;;16.10;99.90;;;;;;5080172;28;20213;-75
2023/05/16 02:30:12;;;;;;;10.40;5.67;;;16.00;99.90;;;;;;5083504;28;20183;-75
2023/05/16 02:32:39;;;;;;;7.73;4.60;;;16.00;99.90;;;;;;5082321;28;20182;-75
2023/05/16 02:35:07;;;;;;;7.60;4.60;;;16.00;99.90;;;;;;5079405;28;20281;-74
2023/05/16 02:37:33;;;;;;;13.40;4.73;;;16.00;99.90;;;;;;5081773;28;20194;-73
2023/05/16 02:39:59;;;;;;;6.20;4.50;;;15.90;99.90;;;;;;5078883;28;20851;-74
2023/05/16 02:42:26;;;;;;;6.97;4.80;;;16.00;99.90;;;;;;5081239;28;20201;-74
2023/05/16 02:44:54;;;;;;;8.20;4.53;;;16.10;99.90;;;;;;5081035;28;22556;-74
2023/05/16 02:47:20;;;;;;;6.83;4.17;;;16.10;99.90;;;;;;5083425;28;20187;-74
2023/05/16 02:49:46;;;;;;;9.27;4.13;;;16.10;99.90;;;;;;5084132;28;20668;-74
2023/05/16 02:52:13;;;;;;;7.43;3.90;;;16.10;99.90;;;;;;5082472;28;20247;-74
2023/05/16 02:54:39;;;;;;;7.70;3.30;;;16.20;99.90;;;;;;5082651;28;20190;-74
2023/05/16 02:57:06;;;;;;;4.60;2.87;;;16.10;99.90;;;;;;5079635;28;20198;-74
2023/05/16 02:59:32;;;;;;;4.87;2.50;;;16.10;99.90;;;;;;5081271;28;20192;-74
2023/05/16 03:01:58;;;;;;;8.50;2.60;;;16.10;99.90;;;;;;5082301;28;20705;-74
2023/05/16 03:04:24;;;;;;;6.23;3.10;;;16.10;99.90;;;;;;5064327;28;20288;-73
2023/05/16 03:06:51;;;;;;;7.57;3.10;;;16.10;99.90;;;;;;5082695;28;20182;-74
2023/05/16 03:09:18;;;;;;;2.67;2.20;;;16.10;99.90;;;;;;5080698;28;20277;-74
2023/05/16 03:11:45;;;;;;;4.70;2.50;;;16.10;99.90;;;;;;5080569;28;20182;-74
2023/05/16 03:14:11;;;;;;;3.83;2.70;;;16.10;99.90;;;;;;5081831;28;20216;-73
2023/05/16 03:16:40;;;;;;;10.60;3.53;;;16.20;99.90;;;;;;5077819;28;20186;-74
2023/05/16 03:19:06;;;;;;;7.93;2.90;;;16.10;99.90;;;;;;5064117;28;20189;-74
2023/05/16 03:21:32;;;;;;;7.90;2.90;;;16.20;99.90;;;;;;5079778;28;20192;-74
2023/05/16 03:23:59;;;;;;;8.07;3.43;;;16.20;99.90;;;;;;5078582;28;20240;-74
2023/05/16 03:26:26;;;;;;;8.07;3.20;;;16.30;99.90;;;;;;5077542;28;20688;-74
2023/05/16 03:28:52;;;;;;;5.93;3.40;;;16.30;99.90;;;;;;5080042;28;20609;-74
2023/05/16 03:31:18;;;;;;;8.07;3.20;;;16.40;99.90;;;;;;5081005;28;20174;-73
2023/05/16 03:33:45;;;;;;;7.40;3.17;;;16.40;99.90;;;;;;5082147;28;22106;-73
2023/05/16 03:36:11;;;;;;;4.83;3.03;;;16.50;99.90;;;;;;5081175;28;20194;-74
2023/05/16 03:38:37;;;;;;;6.27;3.07;;;16.50;99.90;;;;;;5080024;28;20224;-74
2023/05/16 03:41:04;;;;;;;8.83;3.43;;;16.50;99.90;;;;;;5079659;28;20201;-73
2023/05/16 03:43:30;;;;;;;8.57;2.73;;;16.60;99.90;;;;;;5081872;28;20210;-72
2023/05/16 03:45:56;;;;;;;4.80;2.47;;;16.70;99.90;;;;;;5076306;28;20187;-72
2023/05/16 03:48:22;;;;;;;4.67;2.00;;;16.80;99.90;;;;;;5079319;28;20198;-72
2023/05/16 03:50:50;;;;;;;3.87;1.97;;;16.80;99.90;;;;;;5079571;28;20218;-72
2023/05/16 03:53:16;;;;;;;5.07;2.20;;;16.90;99.90;;;;;;5079133;28;20841;-72
2023/05/16 03:55:42;;;;;;;4.30;2.00;;;17.00;99.90;;;;;;5092875;27;20282;-72
2023/05/16 03:58:09;;;;;;;4.50;2.10;;;17.00;99.90;;;;;;5079687;28;20185;-72
2023/05/16 04:00:35;;;;;;;6.83;2.00;;;17.10;99.90;;;;;;5079165;28;20191;-72
2023/05/16 04:03:01;;;;;;;5.43;2.10;;;17.20;99.90;;;;;;5078491;28;20186;-73
2023/05/16 04:05:28;;;;;;;3.47;1.70;;;17.30;99.90;;;;;;5097401;27;20190;-73
2023/05/16 04:07:54;;;;;;;5.23;1.83;;;17.40;99.90;;;;;;5081747;28;20197;-73
2023/05/16 04:10:21;;;;;;;4.77;1.60;;;17.50;99.90;;;;;;5082369;28;20189;-73
2023/05/16 04:12:47;;;;;;;3.43;1.90;;;17.60;99.90;;;;;;5078488;28;20186;-73
2023/05/16 04:15:13;;;;;;;7.70;2.13;;;17.70;99.90;;;;;;5074044;28;20356;-73
2023/05/16 04:17:40;;;;;;;8.33;1.90;;;17.70;99.90;;;;;;5078156;28;20202;-73
2023/05/16 04:20:06;;;;;;;4.10;1.90;;;17.80;99.90;;;;;;5079630;28;20187;-75
2023/05/16 04:22:33;;;;;;;5.93;1.73;;;17.90;99.90;;;;;;5081605;28;20261;-74
2023/05/16 04:24:59;;;;;;;6.03;1.80;;;18.00;99.90;;;;;;5080559;28;20372;-75
2023/05/16 04:27:25;;;;;;;7.50;1.70;;;18.10;99.90;;;;;;5078802;28;20198;-75
2023/05/16 04:29:52;;;;;;;4.57;1.80;;;18.20;99.90;;;;;;5079705;28;20672;-73
2023/05/16 04:32:18;;;;;;;3.43;1.80;;;18.30;99.90;;;;;;5076820;28;20191;-74
2023/05/16 04:34:47;;;;;;;6.67;2.00;;;18.30;99.90;;;;;;5079677;28;20186;-73
2023/05/16 04:37:13;;;;;;;3.47;1.70;;;18.30;99.90;;;;;;5076552;28;20190;-74
2023/05/16 04:39:39;;;;;;;4.43;1.70;;;18.40;99.90;;;;;;5073218;28;20253;-74
2023/05/16 04:42:06;;;;;;;4.03;2.20;;;18.40;99.90;;;;;;5078034;28;20201;-73
2023/05/16 04:44:33;;;;;;;2.40;1.70;;;18.40;99.90;;;;;;5080206;28;20275;-73
2023/05/16 04:47:00;;;;;;;7.43;2.03;;;18.50;99.90;;;;;;5076091;28;20186;-73
2023/05/16 04:49:27;;;;;;;4.77;1.97;;;18.60;99.90;;;;;;5080460;28;20192;-73
2023/05/16 04:51:53;;;;;;;2.80;1.63;;;18.60;99.90;;;;;;5076233;28;20274;-73
2023/05/16 04:54:19;;;;;;;7.10;1.70;;;18.70;99.90;;;;;;5079598;28;20286;-74
2023/05/16 04:56:45;;;;;;;5.33;2.23;;;18.80;99.90;;;;;;5072769;28;20202;-73
2023/05/16 04:59:11;;;;;;;6.67;2.17;;;18.80;99.90;;;;;;5079155;28;20199;-73
2023/05/16 05:01:38;;;;;;;7.40;2.50;;;18.80;99.90;;;;;;5079813;28;20186;-73
2023/05/16 05:04:04;;;;;;;7.90;2.03;;;19.00;99.90;;;;;;5072734;28;20289;-73
2023/05/16 05:06:30;;;;;;;4.50;2.33;;;19.10;99.90;;;;;;5077348;28;20220;-73
2023/05/16 05:08:57;;;;;;;5.40;2.10;;;19.20;99.90;;;;;;5077061;28;20182;-73
2023/05/16 05:11:23;;;;;;;4.93;2.40;;;19.20;99.90;;;;;;5075515;28;20186;-73
2023/05/16 05:13:49;;;;;;;7.60;2.43;;;19.30;99.90;;;;;;5092392;28;20248;-73
2023/05/16 05:16:16;;;;;;;4.33;2.00;;;19.40;99.90;;;;;;5096388;28;20556;-73
2023/05/16 05:18:43;;;;;;;8.50;2.30;;;19.50;99.90;;;;;;5077222;28;20186;-73
2023/05/16 05:21:09;;;;;;;6.67;2.23;;;19.60;99.90;;;;;;5077437;28;20189;-73
2023/05/16 05:23:35;;;;;;;3.80;2.20;;;19.70;99.90;;;;;;5077425;28;20607;-73
2023/05/16 05:26:02;;;;;;;5.73;3.33;;;19.70;99.90;;;;;;5080824;28;20267;-74
2023/05/16 05:28:28;;;;;;;5.57;2.87;;;19.70;99.90;;;;;;5082550;28;20182;-72
2023/05/16 05:30:54;;;;;;;6.00;2.50;;;19.70;99.90;;;;;;5074024;28;20183;-72
2023/05/16 05:33:30;;;;;;;6.90;3.00;;;19.80;99.90;;;;;;5079896;28;20197;-73
2023/05/16 05:35:56;;;;;;;5.47;2.83;;;19.80;99.90;;;;;;5076357;28;20190;-73
2023/05/16 05:38:23;;;;;;;5.60;2.57;;;19.80;99.90;;;;;;5079575;28;20198;-73
2023/05/16 05:40:49;;;;;;;3.83;2.57;;;19.80;99.90;;;;;;5078825;28;20209;-73
2023/05/16 05:43:15;;;;;;;5.90;2.87;;;19.90;99.90;;;;;;5081633;28;20194;-73
2023/05/16 05:45:42;;;;;;;5.23;2.70;;;19.90;99.90;;;;;;5096252;27;20191;-73
2023/05/16 05:48:09;;;;;;;7.87;2.80;;;20.00;99.90;;;;;;5082544;28;20194;-73
2023/05/16 05:50:36;;;;;;;10.43;2.70;;;20.10;99.90;;;;;;5083007;28;21913;-73
2023/05/16 05:53:03;;;;;;;5.67;2.67;;;20.20;99.90;;;;;;5084721;28;20722;-73
2023/05/16 05:55:29;;;;;;;5.60;2.60;;;20.20;99.90;;;;;;5081781;28;20189;-73
2023/05/16 05:57:55;;;;;;;8.63;2.93;;;20.30;99.90;;;;;;5081481;28;20182;-73
2023/05/16 06:00:21;;;;;;;8.40;2.47;;;20.40;99.90;;;;;;5080304;28;20182;-73
2023/05/16 06:02:48;;;;;;;5.90;2.27;;;20.40;99.90;;;;;;5079998;28;20193;-73
2023/05/16 06:05:14;;;;;;;5.03;2.20;;;20.40;99.90;;;;;;5083002;28;20267;-73
2023/05/16 06:07:40;;;;;;;5.80;2.87;;;20.50;99.90;;;;;;5094786;27;20447;-74
2023/05/16 06:10:07;;;;;;;5.23;2.70;;;20.50;99.90;;;;;;5077657;28;20180;-73
2023/05/16 06:12:34;;;;;;;7.40;2.67;;;20.50;99.90;;;;;;5077279;28;20185;-74
2023/05/16 06:15:00;;;;;;;7.10;2.77;;;20.60;99.90;;;;;;5081326;28;20237;-74
2023/05/16 06:17:26;;;;;;;6.17;2.53;;;20.70;99.90;;;;;;5079688;28;20235;-73
2023/05/16 06:19:52;;;;;;;5.30;2.50;;;20.70;99.90;;;;;;5080322;28;20224;-73
2023/05/16 06:22:18;;;;;;;6.80;2.83;;;20.80;99.90;;;;;;5064798;28;20185;-74
2023/05/16 06:24:45;;;;;;;5.80;3.07;;;20.90;99.90;;;;;;5082633;28;20206;-74
2023/05/16 06:27:11;;;;;;;7.87;3.37;;;21.00;99.90;;;;;;5079995;28;20197;-75
2023/05/16 06:29:37;;;;;;;12.17;3.33;;;21.00;99.90;;;;;;5085010;28;20187;-75
2023/05/16 06:32:04;;;;;;;12.83;3.50;;;21.10;99.90;;;;;;5082194;28;20601;-75
2023/05/16 06:34:31;;;;;;;7.10;3.60;;;21.30;99.90;;;;;;5078072;28;20190;-73
2023/05/16 06:36:57;;;;;;;6.30;3.40;;;21.40;99.90;;;;;;5083842;28;20190;-73
2023/05/16 06:39:23;;;;;;;8.13;3.30;;;21.50;99.90;;;;;;5082006;28;20186;-73
2023/05/16 06:41:49;;;;;;;5.97;3.40;;;21.60;99.90;;;;;;5080573;28;20189;-72
2023/05/16 06:44:16;;;;;;;6.70;3.37;;;21.60;99.90;;;;;;5092907;28;20547;-72
2023/05/16 06:46:42;;;;;;;7.90;3.40;;;21.60;99.90;;;;;;5080393;28;20185;-72
2023/05/16 06:49:08;;;;;;;7.53;3.93;;;21.70;99.90;;;;;;5079550;28;20212;-72
2023/05/16 06:51:34;;;;;;;12.07;3.50;;;21.80;99.90;;;;;;5082350;28;20683;-73
2023/05/16 06:54:01;;;;;;;6.73;3.63;;;21.90;99.90;;;;;;5093600;27;20229;-73
2023/05/16 06:56:27;;;;;;;7.00;3.90;;;22.10;99.90;;;;;;5079495;28;20198;-75
2023/05/16 06:58:54;;;;;;;4.73;3.27;;;22.10;99.90;;;;;;5082984;28;20231;-75
2023/05/16 07:01:20;;;;;;;5.53;3.37;;;22.30;99.90;;;;;;5081922;28;20958;-75
2023/05/16 07:03:46;;;;;;;5.50;4.33;;;22.30;99.90;;;;;;5079390;28;20715;-75
2023/05/16 07:06:12;;;;;;;6.53;3.73;;;22.40;99.90;;;;;;5083578;28;20732;-75
2023/05/16 07:08:38;;;;;;;7.68;3.85;;;22.50;99.90;;;;;;5092335;28;20214;-74
2023/05/16 07:11:05;;;;;;;8.30;3.60;;;22.50;99.90;;;;;;5079368;28;20216;-75
2023/05/16 07:13:31;;;;;;;5.72;3.30;;;22.60;99.90;;;;;;5082570;28;20232;-76
2023/05/16 07:15:57;;;;;;;10.82;3.72;;;22.70;99.90;;;;;;5075942;28;20198;-76
2023/05/16 07:18:23;;;;;;;7.32;3.58;;;22.90;99.90;;;;;;5071566;28;20221;-76
2023/05/16 07:20:50;;;;;;;7.43;3.10;;;22.90;99.90;;;;;;5078175;28;20194;-76
2023/05/16 07:23:16;;;;;;;7.60;3.20;;;23.00;99.90;;;;;;5074884;28;20210;-76
2023/05/16 07:25:42;;;;;;;9.73;3.42;;;23.10;99.90;;;;;;5076241;28;20186;-76
2023/05/16 07:28:09;;;;;;;9.07;3.60;;;23.20;99.90;;;;;;5074373;28;20182;-76
2023/05/16 07:30:35;;;;;;;6.35;3.35;;;23.30;99.90;;;;;;5074682;28;20273;-76
2023/05/16 07:33:01;;;;;;;4.32;2.78;;;23.40;99.90;;;;;;5073968;28;20290;-76
2023/05/16 07:35:28;;;;;;;11.82;2.90;;;23.40;99.90;;;;;;5074195;28;20353;-76
2023/05/16 07:37:54;;;;;;;4.93;2.72;;;23.60;99.90;;;;;;5071349;28;20571;-76
2023/05/16 07:40:24;;;;;;;10.68;3.00;;;23.60;99.90;;;;;;5065400;28;20608;-76
2023/05/16 07:42:51;;;;;;;5.75;2.85;;;23.80;99.90;;;;;;5066887;28;20593;-76
2023/05/16 07:45:18;;;;;;;4.72;2.72;;;23.90;99.90;;;;;;5070197;28;20221;-76
2023/05/16 07:47:44;;;;;;;6.82;2.70;;;24.10;99.90;;;;;;5071497;28;20190;-76
2023/05/16 07:50:11;;;;;;;5.32;3.22;;;24.20;99.90;;;;;;5069362;28;20193;-76
2023/05/16 07:52:37;;;;;;;7.78;2.70;;;24.20;99.90;;;;;;5075802;28;20186;-76
2023/05/16 07:55:04;;;;;;;5.57;3.08;;;24.30;99.90;;;;;;5074071;28;20191;-76
2023/05/16 07:57:31;;;;;;;4.95;3.00;;;24.30;99.90;;;;;;5078038;28;20194;-76
2023/05/16 07:59:57;;;;;;;5.82;2.45;;;24.40;99.90;;;;;;5082279;27;20324;-76
2023/05/16 08:02:28;;;;;;;7.95;2.90;;;24.40;99.90;;;;;;5055113;28;20178;-75
2023/05/16 08:04:55;;;;;;;5.28;2.58;;;24.60;99.90;;;;;;5055233;28;20206;-76
2023/05/16 08:07:22;;;;;;;7.03;2.80;;;24.60;99.90;;;;;;5068277;28;20668;-76
2023/05/16 08:09:48;;;;;;;7.60;2.53;;;24.70;99.90;;;;;;5068692;28;20208;-76
2023/05/16 08:12:15;;;;;;;6.00;2.40;;;24.80;99.90;;;;;;5070276;28;20275;-75
2023/05/16 08:14:41;;;;;;;4.00;2.20;;;24.90;99.90;;;;;;5064546;28;20564;-76
2023/05/16 08:17:07;;;;;;;5.65;2.58;;;24.90;99.90;;;;;;5071192;28;20194;-76
2023/05/16 08:19:34;;;;;;;6.18;2.80;;;25.10;99.90;;;;;;5091718;28;20194;-76
2023/05/16 08:22:01;;;;;;;6.32;2.88;;;25.10;99.90;;;;;;5074290;28;20228;-76
2023/05/16 08:24:28;;;;;;;4.63;2.63;;;25.20;99.90;;;;;;5054842;28;20647;-76
2023/05/16 08:26:54;;;;;;;3.53;2.40;;;25.40;99.90;;;;;;5073686;28;20197;-76
2023/05/16 08:29:20;;;;;;;5.25;2.50;;;25.60;99.90;;;;;;5072222;28;20174;-75
2023/05/16 08:31:47;;;;;;;5.75;2.85;;;25.60;99.90;;;;;;5074831;28;20186;-76
2023/05/16 08:34:13;;;;;;;7.18;2.63;;;25.70;99.90;;;;;;5069201;28;20256;-76
2023/05/16 08:36:40;;;;;;;7.25;3.25;;;25.90;99.90;;;;;;5075398;28;20789;-76
2023/05/16 08:39:06;;;;;;;6.13;2.42;;;25.90;99.90;;;;;;5078483;28;20190;-76
2023/05/16 08:41:33;;;;;;;6.03;2.25;;;26.00;99.90;;;;;;5071707;28;20281;-76
2023/05/16 08:43:59;;;;;;;5.97;2.70;;;26.10;99.90;;;;;;5069105;28;20315;-76
2023/05/16 08:46:28;;;;;;;5.10;2.65;;;26.30;99.90;;;;;;5072601;28;20201;-76
2023/05/16 08:49:00;;;;;;;4.32;2.70;;;26.50;99.90;;;;;;5069289;28;20260;-76
2023/05/16 08:51:34;;;;;;;4.78;2.67;;;26.50;99.90;;;;;;5070815;28;20276;-76
2023/05/16 08:54:10;;;;;;;6.45;2.58;;;26.60;99.90;;;;;;5074779;28;20188;-76
2023/05/16 08:56:38;;;;;;;5.15;2.53;;;26.70;99.90;;;;;;5075626;28;20491;-76
2023/05/16 08:59:05;;;;;;;7.53;2.35;;;26.80;99.90;;;;;;5075252;28;20270;-76
2023/05/16 09:01:31;;;;;;;6.07;2.50;;;26.80;99.90;;;;;;5072465;28;20775;-76
2023/05/16 09:03:59;;;;;;;4.50;2.47;;;26.90;99.90;;;;;;5053432;28;20295;-75
2023/05/16 09:06:26;;;;;;;10.48;2.72;;;27.00;99.90;;;;;;5075493;28;20186;-76
2023/05/16 09:08:53;;;;;;;5.63;2.80;;;27.00;99.90;;;;;;5072013;28;21137;-76
2023/05/16 09:11:20;;;;;;;7.05;2.50;;;27.20;99.90;;;;;;5072752;28;20182;-76
2023/05/16 09:13:48;;;;;;;7.72;2.60;;;27.30;99.90;;;;;;5075181;28;20830;-76
2023/05/16 09:16:19;;;;;;;8.25;2.63;;;27.30;99.90;;;;;;5087219;28;20530;-76
2023/05/16 09:18:58;;;;;;;7.55;2.63;;;27.40;99.90;;;;;;5079417;22;20310;-73
2023/05/16 09:21:33;;;;;;;6.65;2.83;;;27.60;99.90;;;;;;5037601;28;20198;-73
2023/05/16 09:26:51;;;;;;;5.70;2.97;;;27.70;99.90;;;;;;5051570;28;20226;-81
2023/05/16 09:29:18;;;;;;;6.90;2.50;;;27.80;99.90;;;;;;5042337;28;20179;-84
2023/05/16 09:31:48;;;;;;;5.32;2.58;;;27.90;99.90;;;;;;5018351;28;20191;-87
2023/05/16 09:34:24;;;;;;;5.78;2.83;;;27.90;99.90;;;;;;5013133;28;20945;-77
2023/05/16 09:36:55;;;;;;;5.47;2.70;;;28.00;99.90;;;;;;5050443;28;20244;-78
2023/05/16 09:39:27;;;;;;;7.65;2.60;;;28.10;99.90;;;;;;5035387;28;20289;-79
2023/05/16 09:41:53;;;;;;;4.50;2.80;;;28.20;99.90;;;;;;5058402;28;20182;-79
2023/05/16 09:44:21;;;;;;;5.50;2.83;;;28.40;99.90;;;;;;5032125;28;20226;-80
2023/05/16 09:47:15;;;;;;;5.05;2.58;;;28.40;99.90;;;;;;5040267;28;21162;-80
2023/05/16 09:50:02;;;;;;;7.90;2.78;;;28.40;99.90;;;;;;5054395;28;20191;-83
2023/05/16 09:52:50;;;;;;;6.95;3.17;;;28.60;99.90;;;;;;5043854;28;20411;-85
2023/05/16 09:55:37;;;;;;;6.63;2.90;;;28.70;99.90;;;;;;5043654;28;20198;-79
2023/05/16 09:58:32;;;;;;;11.10;2.95;;;28.70;99.90;;;;;;5047036;28;20255;-84
2023/05/16 10:01:19;;;;;;;13.60;2.95;;;28.80;99.90;;;;;;5056634;28;20252;-82
2023/05/16 10:03:54;;;;;;;8.27;2.75;;;28.90;99.90;;;;;;5047324;28;20320;-84
2023/05/16 10:06:23;;;;;;;7.95;2.80;;;29.10;99.90;;;;;;5035298;28;20493;-78
2023/05/16 10:08:50;;;;;;;5.63;2.90;;;29.10;99.90;;;;;;5055354;28;20189;-81
2023/05/16 10:11:18;;;;;;;6.90;3.22;;;29.20;99.90;;;;;;5033629;28;20186;-82
2023/05/16 10:13:51;;;;;;;6.03;2.67;;;29.20;99.90;;;;;;5074197;28;20191;-85
2023/05/16 10:16:21;;;;;;;9.98;3.00;;;29.20;99.90;;;;;;5025145;28;20190;-89
2023/05/16 10:18:47;;;;;;;10.25;2.90;;;29.20;99.90;;;;;;5040936;28;20263;-83
2023/05/16 10:21:17;;;;;;;11.18;3.03;;;29.20;99.90;;;;;;5041383;28;20201;-86
2023/05/16 10:23:50;;;;;;;8.05;2.80;;;29.20;99.90;;;;;;5038206;28;20202;-81
2023/05/16 10:26:18;;;;;;;5.22;2.38;;;29.20;99.90;;;;;;5042893;28;20256;-83
2023/05/16 10:28:45;;;;;;;6.43;2.88;;;29.20;99.90;;;;;;5044415;28;20241;-83
2023/05/16 10:31:15;;;;;;;7.85;3.20;;;29.20;99.90;;;;;;5052141;28;20195;-79
2023/05/16 10:33:41;;;;;;;7.30;2.90;;;29.20;99.90;;;;;;5042047;28;20222;-82
2023/05/16 10:36:10;;;;;;;9.23;3.25;;;29.20;99.90;;;;;;5034291;28;20277;-84
2023/05/16 10:38:39;;;;;;;5.80;2.85;;;29.20;99.90;;;;;;5056385;28;20298;-83
2023/05/16 10:41:08;;;;;;;7.20;2.97;;;29.20;99.90;;;;;;5024556;28;20186;-82
2023/05/16 10:43:35;;;;;;;6.60;3.08;;;29.30;99.90;;;;;;5028108;28;20215;-77
2023/05/16 10:46:11;;;;;;;4.82;2.80;;;29.20;99.90;;;;;;5043550;28;20233;-82
2023/05/16 10:48:41;;;;;;;5.55;2.80;;;29.20;99.90;;;;;;5043453;28;20287;-84
2023/05/16 10:51:34;;;;;;;5.72;2.90;;;29.10;99.90;;;;;;5041231;28;20267;-86
2023/05/16 10:54:12;;;;;;;5.45;3.17;;;29.10;99.90;;;;;;5064252;28;20252;-85
2023/05/16 10:56:42;;;;;;;7.65;2.92;;;29.10;99.90;;;;;;5036949;28;20182;-80
2023/05/16 10:59:27;;;;;;;8.60;3.08;;;29.10;99.90;;;;;;5030058;28;20273;-83
2023/05/16 11:01:55;;;;;;;6.07;2.88;;;29.00;99.90;;;;;;5026371;28;20186;-80
2023/05/16 11:04:44;;;;;;;11.95;3.05;;;29.10;99.90;;;;;;5029288;28;20214;-80
2023/05/16 11:07:10;;;;;;;6.18;2.95;;;29.10;99.90;;;;;;5029099;28;20190;-82
2023/05/16 11:09:43;;;;;;;5.30;2.70;;;29.10;99.90;;;;;;5025562;28;20199;-77
2023/05/16 11:12:12;;;;;;;6.13;2.85;;;29.10;99.90;;;;;;5027417;28;20190;-78
2023/05/16 11:14:42;;;;;;;7.15;3.20;;;29.00;99.90;;;;;;5026391;28;20201;-85
2023/05/16 11:17:20;;;;;;;6.95;2.90;;;28.90;99.90;;;;;;5041039;28;20188;-82
2023/05/16 11:19:58;;;;;;;5.95;3.53;;;28.80;99.90;;;;;;5061315;28;20175;-81
2023/05/16 11:22:42;;;;;;;6.78;2.78;;;28.90;99.90;;;;;;5042027;28;20292;-81
2023/05/16 11:25:12;;;;;;;8.38;2.85;;;28.90;99.90;;;;;;5028326;28;20310;-83
2023/05/16 11:27:47;;;;;;;7.70;3.00;;;28.90;99.90;;;;;;5043017;28;20295;-82
2023/05/16 11:30:16;;;;;;;9.43;3.15;;;28.90;99.90;;;;;;5041532;28;20221;-84
2023/05/16 11:32:46;;;;;;;7.10;2.85;;;28.90;99.60;;;;;;5021855;28;20228;-80
2023/05/16 11:35:17;;;;;;;5.82;3.05;;;28.90;99.90;;;;;;5041248;28;20194;-82
2023/05/16 11:37:47;;;;;;;6.78;3.50;;;29.00;99.90;;;;;;5025989;28;20210;-79
2023/05/16 11:40:15;;;;;;;8.82;2.97;;;29.00;99.60;;;;;;5038541;28;20195;-86
2023/05/16 11:42:52;;;;;;;5.30;2.70;;;28.90;99.90;;;;;;5048552;28;20611;-83
2023/05/16 11:45:24;;;;;;;5.72;2.60;;;28.90;99.70;;;;;;5042579;28;20359;-80
2023/05/16 11:47:51;;;;;;;11.93;3.13;;;28.90;99.90;;;;;;5060522;28;20822;-78
2023/05/16 11:50:21;;;;;;;6.93;3.17;;;29.00;99.50;;;;;;5027550;28;20190;-86
2023/05/16 11:52:53;;;;;;;9.05;2.90;;;29.00;99.40;;;;;;5057131;28;20608;-81
2023/05/16 11:55:22;;;;;;;9.57;3.00;;;29.00;99.10;;;;;;5041939;28;20297;-83
2023/05/16 11:57:51;;;;;;;8.68;2.95;;;29.10;99.00;;;;;;5040711;28;20236;-84
2023/05/16 12:00:25;;;;;;;5.85;3.28;;;29.10;99.30;;;;;;5040007;28;20251;-81
2023/05/16 12:03:00;;;;;;;6.38;3.10;;;29.10;99.30;;;;;;5058643;28;20179;-83
2023/05/16 12:05:29;;;;;;;5.95;2.90;;;29.10;99.20;;;;;;5057010;28;20407;-78
2023/05/16 12:07:58;;;;;;;6.32;2.72;;;29.10;99.80;;;;;;5036300;28;20206;-85
2023/05/16 12:10:25;;;;;;;5.95;2.60;;;29.10;99.70;;;;;;5026289;28;20745;-84
2023/05/16 12:12:53;;;;;;;6.80;2.63;;;29.10;98.50;;;;;;5047942;28;20803;-82
2023/05/16 12:15:20;;;;;;;4.45;2.53;;;29.10;99.30;;;;;;5016876;28;20186;-81
2023/05/16 12:17:47;;;;;;;6.07;2.70;;;29.10;99.70;;;;;;5037832;28;20219;-81
2023/05/16 12:20:15;;;;;;;5.50;2.88;;;29.10;99.00;;;;;;5057064;28;20206;-81
2023/05/16 12:22:44;;;;;;;7.47;2.97;;;29.10;98.50;;;;;;5036804;28;20416;-84
2023/05/16 12:25:31;;;;;;;7.00;3.13;;;29.10;99.30;;;;;;5025436;28;20226;-87
2023/05/16 12:28:03;;;;;;;5.85;2.88;;;29.10;99.20;;;;;;5023604;28;20400;-83
2023/05/16 12:30:31;;;;;;;7.57;2.53;;;29.10;99.80;;;;;;5056929;28;20771;-82
2023/05/16 12:33:12;;;;;;;8.52;2.80;;;29.20;98.30;;;;;;5023603;28;20411;-82
2023/05/16 12:35:51;;;;;;;6.93;2.47;;;29.20;99.10;;;;;;5038178;28;20187;-87
2023/05/16 12:38:25;;;;;;;10.43;2.95;;;29.20;99.40;;;;;;5023158;28;20725;-79
2023/05/16 12:40:58;;;;;;;6.95;2.80;;;29.20;98.60;;;;;;5044051;28;20186;-84
2023/05/16 12:43:30;;;;;;;9.05;2.50;;;29.30;98.40;;;;;;5036540;28;20207;-80
2023/05/16 12:45:59;;;;;;;9.23;2.67;;;29.30;98.70;;;;;;5053715;28;20198;-79
2023/05/16 12:48:34;;;;;;;11.75;2.53;;;29.20;98.90;;;;;;5024988;28;20182;-81
2023/05/16 12:51:24;;;;;;;6.25;2.40;;;29.30;97.70;;;;;;5028253;28;20229;-77
2023/05/16 12:53:51;;;;;;;4.78;2.65;;;29.20;98.60;;;;;;5011485;28;20195;-82
2023/05/16 12:56:17;;;;;;;5.30;2.53;;;29.20;97.20;;;;;;5039363;28;20206;-78
2023/05/16 12:58:44;;;;;;;6.50;2.60;;;29.20;97.80;;;;;;5054114;28;20197;-79
2023/05/16 13:01:11;;;;;;;7.95;2.95;;;29.20;97.30;;;;;;5059279;28;20183;-86